createdAt,value
2019-03-16T00:00:15.553Z,5.05
2019-03-16T00:02:44.589Z,1.98
2019-03-16T00:05:13.235Z,2.15
2019-03-16T00:07:41.708Z,4.37
2019-03-16T00:10:10.839Z,2.12
2019-03-16T00:12:39.855Z,4.50
2019-03-16T00:15:09.195Z,2.70
2019-03-16T00:17:38.217Z,5.55
2019-03-16T00:20:09.849Z,5.47
2019-03-16T00:22:38.878Z,4.67
2019-03-16T00:25:09.269Z,6.95
2019-03-16T00:27:38.275Z,3.75
2019-03-16T00:30:09.605Z,2.93
2019-03-16T00:32:38.057Z,8.25
2019-03-16T00:35:06.886Z,5.70
2019-03-16T00:37:35.346Z,4.37
2019-03-16T00:40:06.419Z,5.50
2019-03-16T00:42:34.953Z,6.97
2019-03-16T00:45:05.819Z,6.75
2019-03-16T00:47:34.277Z,4.37
2019-03-16T00:50:03.011Z,2.55
2019-03-16T00:52:31.483Z,5.27
2019-03-16T00:54:59.944Z,3.72
2019-03-16T00:57:28.991Z,7.03
2019-03-16T00:59:57.456Z,3.85
2019-03-16T01:02:27.602Z,7.62
2019-03-16T01:04:56.935Z,4.83
2019-03-16T01:07:25.388Z,5.77
2019-03-16T01:09:53.862Z,5.13
2019-03-16T01:12:22.881Z,4.15
2019-03-16T01:14:51.349Z,3.67
2019-03-16T01:17:20.382Z,5.80
2019-03-16T01:19:49.400Z,4.37
2019-03-16T01:22:18.430Z,6.67
2019-03-16T01:24:47.444Z,3.25
2019-03-16T01:27:16.494Z,2.67
2019-03-16T01:29:44.959Z,3.52
2019-03-16T01:32:13.428Z,3.05
2019-03-16T01:34:44.198Z,6.17
2019-03-16T01:37:13.224Z,4.40
2019-03-16T01:39:42.237Z,4.45
2019-03-16T01:42:11.275Z,8.33
2019-03-16T01:44:39.732Z,3.22
2019-03-16T01:47:08.778Z,5.80
2019-03-16T01:49:37.248Z,4.93
2019-03-16T01:52:06.281Z,3.47
2019-03-16T01:54:35.295Z,4.22
2019-03-16T01:57:03.773Z,5.60
2019-03-16T01:59:32.220Z,4.37
2019-03-16T02:02:01.260Z,4.20
2019-03-16T02:04:30.296Z,3.25
2019-03-16T02:06:58.803Z,5.30
2019-03-16T02:09:27.323Z,8.30
2019-03-16T02:11:56.384Z,6.20
2019-03-16T02:14:25.404Z,2.42
2019-03-16T02:16:54.523Z,6.47
2019-03-16T02:19:22.979Z,4.13
2019-03-16T02:21:52.117Z,4.75
2019-03-16T02:24:21.489Z,4.30
2019-03-16T02:26:50.626Z,3.70
2019-03-16T02:29:19.758Z,6.22
2019-03-16T02:31:48.850Z,4.03
2019-03-16T02:34:17.877Z,3.58
2019-03-16T02:36:53.600Z,4.67
2019-03-16T02:39:22.670Z,3.05
2019-03-16T02:41:51.735Z,3.92
2019-03-16T02:44:20.773Z,4.30
2019-03-16T02:46:49.801Z,5.58
2019-03-16T02:49:18.840Z,5.65
2019-03-16T02:51:47.882Z,3.22
2019-03-16T02:54:16.922Z,8.08
2019-03-16T02:56:45.958Z,5.08
2019-03-16T02:59:14.432Z,3.33
2019-03-16T03:01:42.979Z,4.40
2019-03-16T03:04:11.458Z,7.67
2019-03-16T03:06:40.484Z,5.00
2019-03-16T03:09:09.599Z,4.58
2019-03-16T03:11:38.620Z,5.20
2019-03-16T03:14:07.664Z,4.30
2019-03-16T03:16:36.701Z,3.45
2019-03-16T03:19:05.754Z,4.92
2019-03-16T03:21:34.824Z,4.42
2019-03-16T03:24:03.862Z,6.10
2019-03-16T03:26:32.889Z,5.17
2019-03-16T03:29:01.921Z,4.47
2019-03-16T03:31:30.954Z,3.12
2019-03-16T03:34:02.549Z,8.13
2019-03-16T03:36:30.734Z,4.30
2019-03-16T03:38:59.849Z,5.53
2019-03-16T03:41:28.314Z,5.28
2019-03-16T03:43:57.352Z,3.80
2019-03-16T03:46:25.810Z,3.37
2019-03-16T03:48:54.275Z,5.75
2019-03-16T03:51:23.301Z,4.65
2019-03-16T03:53:51.755Z,4.03
2019-03-16T03:56:20.803Z,7.47
2019-03-16T03:58:49.929Z,6.75
2019-03-16T04:01:19.136Z,3.95
2019-03-16T04:03:47.729Z,6.40
2019-03-16T04:06:16.198Z,3.03
2019-03-16T04:08:44.675Z,5.77
2019-03-16T04:11:13.144Z,3.17
2019-03-16T04:13:41.622Z,2.87
2019-03-16T04:16:10.101Z,4.57
2019-03-16T04:18:38.561Z,8.03
2019-03-16T04:21:07.604Z,4.70
2019-03-16T04:23:36.073Z,6.80
2019-03-16T04:26:04.630Z,4.30
2019-03-16T04:28:33.089Z,6.43
2019-03-16T04:31:02.142Z,4.58
2019-03-16T04:33:31.174Z,5.67
2019-03-16T04:35:59.647Z,6.17
2019-03-16T04:38:28.105Z,4.73
2019-03-16T04:40:57.149Z,2.95
2019-03-16T04:43:25.595Z,5.33
2019-03-16T04:45:54.633Z,3.10
2019-03-16T04:48:23.669Z,5.87
2019-03-16T04:50:53.058Z,3.98
2019-03-16T04:53:22.551Z,8.83
2019-03-16T04:55:51.631Z,4.40
2019-03-16T04:58:20.636Z,4.92
2019-03-16T05:00:49.671Z,5.22
2019-03-16T05:03:18.688Z,5.67
2019-03-16T05:05:47.723Z,4.00
2019-03-16T05:08:16.750Z,3.90
2019-03-16T05:10:45.232Z,4.43
2019-03-16T05:13:14.268Z,4.78
2019-03-16T05:15:43.302Z,6.10
2019-03-16T05:18:12.316Z,3.37
2019-03-16T05:20:41.342Z,3.58
2019-03-16T05:23:10.382Z,7.08
2019-03-16T05:25:39.404Z,6.58
2019-03-16T05:28:08.452Z,5.22
2019-03-16T05:30:37.476Z,5.80
2019-03-16T05:33:06.518Z,4.65
2019-03-16T05:35:35.620Z,6.42
2019-03-16T05:38:04.656Z,7.30
2019-03-16T05:40:33.700Z,3.85
2019-03-16T05:43:02.875Z,6.40
2019-03-16T05:45:32.116Z,3.37
2019-03-16T05:48:01.153Z,4.58
2019-03-16T05:50:30.185Z,7.80
2019-03-16T05:52:59.210Z,5.60
2019-03-16T05:55:28.249Z,6.05
2019-03-16T05:57:57.268Z,3.55
2019-03-16T06:00:26.301Z,1.77
2019-03-16T06:02:55.341Z,3.40
2019-03-16T06:05:23.802Z,2.70
2019-03-16T06:07:52.858Z,4.90
2019-03-16T06:10:21.979Z,4.78
2019-03-16T06:12:51.103Z,3.25
2019-03-16T06:15:20.122Z,6.03
2019-03-16T06:17:49.237Z,6.10
2019-03-16T06:20:18.279Z,5.58
2019-03-16T06:22:47.313Z,4.87
2019-03-16T06:25:16.339Z,4.90
2019-03-16T06:27:45.387Z,6.08
2019-03-16T06:30:15.987Z,2.50
2019-03-16T06:32:45.447Z,4.70
2019-03-16T06:35:24.503Z,8.08
2019-03-16T06:37:45.601Z,5.28
2019-03-16T06:40:14.693Z,3.62
2019-03-16T06:42:43.723Z,8.00
2019-03-16T06:45:13.087Z,3.58
2019-03-16T06:47:42.135Z,5.72
2019-03-16T06:50:15.897Z,3.47
2019-03-16T06:52:44.924Z,5.20
2019-03-16T06:55:14.065Z,2.65
2019-03-16T06:57:43.119Z,3.17
2019-03-16T07:00:16.934Z,3.67
2019-03-16T07:02:46.027Z,4.50
2019-03-16T07:05:15.315Z,4.45
2019-03-16T07:07:44.405Z,3.83
2019-03-16T07:10:14.071Z,4.10
2019-03-16T07:12:43.088Z,3.85
2019-03-16T07:15:13.346Z,4.10
2019-03-16T07:17:42.361Z,5.75
2019-03-16T07:20:13.804Z,4.22
2019-03-16T07:22:42.998Z,5.62
2019-03-16T07:25:12.107Z,4.20
2019-03-16T07:27:41.116Z,4.05
2019-03-16T07:30:14.296Z,4.62
2019-03-16T07:32:43.312Z,3.60
2019-03-16T07:35:12.598Z,7.87
2019-03-16T07:37:41.833Z,4.20
2019-03-16T07:40:13.161Z,7.83
2019-03-16T07:42:42.180Z,4.30
2019-03-16T07:45:12.245Z,2.72
2019-03-16T07:47:41.328Z,6.65
2019-03-16T07:50:12.030Z,6.85
2019-03-16T07:52:41.066Z,7.33
2019-03-16T07:55:10.410Z,6.58
2019-03-16T07:57:40.733Z,9.10
2019-03-16T08:00:11.775Z,3.85
2019-03-16T08:02:41.061Z,4.90
2019-03-16T08:05:18.254Z,3.67
2019-03-16T08:07:41.013Z,5.75
2019-03-16T08:10:10.984Z,5.97
2019-03-16T08:12:40.292Z,3.90
2019-03-16T08:15:10.682Z,5.72
2019-03-16T08:17:39.781Z,2.15
2019-03-16T08:20:10.045Z,3.65
2019-03-16T08:22:39.237Z,2.08
2019-03-16T08:25:09.031Z,2.87
2019-03-16T08:27:38.051Z,5.75
2019-03-16T08:30:13.308Z,4.05
2019-03-16T08:32:42.341Z,5.10
2019-03-16T08:35:11.437Z,4.25
2019-03-16T08:37:40.537Z,5.33
2019-03-16T08:40:11.376Z,4.90
2019-03-16T08:42:40.570Z,2.98
2019-03-16T08:45:10.433Z,3.80
2019-03-16T08:47:39.458Z,5.90
2019-03-16T08:50:10.360Z,5.45
2019-03-16T08:52:39.395Z,5.45
2019-03-16T08:55:09.271Z,6.17
2019-03-16T08:57:38.306Z,4.47
2019-03-16T09:00:12.346Z,5.67
2019-03-16T09:02:41.442Z,7.45
2019-03-16T09:05:10.545Z,5.42
2019-03-16T09:07:39.616Z,4.85
2019-03-16T09:10:09.941Z,2.40
2019-03-16T09:12:39.048Z,4.92
2019-03-16T09:15:15.920Z,5.12
2019-03-16T09:17:45.131Z,4.55
2019-03-16T09:20:14.892Z,4.28
2019-03-16T09:22:43.954Z,3.85
2019-03-16T09:25:13.136Z,3.52
2019-03-16T09:27:42.266Z,4.65
2019-03-16T09:30:15.526Z,4.53
2019-03-16T09:32:44.646Z,6.00
2019-03-16T09:35:13.746Z,6.20
2019-03-16T09:37:42.776Z,6.92
2019-03-16T09:40:11.889Z,6.17
2019-03-16T09:42:40.931Z,4.03
2019-03-16T09:45:12.154Z,4.28
2019-03-16T09:47:41.204Z,5.62
2019-03-16T09:50:10.962Z,4.97
2019-03-16T09:52:40.269Z,4.15
2019-03-16T09:55:10.927Z,3.35
2019-03-16T09:57:40.018Z,3.25
2019-03-16T10:00:11.986Z,4.33
2019-03-16T10:02:41.028Z,4.28
2019-03-16T10:05:10.052Z,3.98
2019-03-16T10:07:39.081Z,3.92
2019-03-16T10:10:11.197Z,5.62
2019-03-16T10:12:40.233Z,6.08
2019-03-16T10:15:10.798Z,3.05
2019-03-16T10:17:39.835Z,5.40
2019-03-16T10:20:10.807Z,6.65
2019-03-16T10:22:39.904Z,10.25
2019-03-16T10:25:09.517Z,6.33
2019-03-16T10:27:38.557Z,6.85
2019-03-16T10:30:14.949Z,8.08
2019-03-16T10:32:44.005Z,7.08
2019-03-16T10:35:13.096Z,8.83
2019-03-16T10:37:42.214Z,8.23
2019-03-16T10:40:12.601Z,7.10
2019-03-16T10:42:41.646Z,5.70
2019-03-16T10:45:11.811Z,7.92
2019-03-16T10:47:40.877Z,8.35
2019-03-16T10:50:14.530Z,5.65
2019-03-16T10:52:43.574Z,7.33
2019-03-16T10:55:12.681Z,9.48
2019-03-16T10:57:41.710Z,7.67
2019-03-16T11:00:15.592Z,8.78
2019-03-16T11:02:44.699Z,6.53
2019-03-16T11:05:13.810Z,5.80
2019-03-16T11:07:42.855Z,5.47
2019-03-16T11:10:13.310Z,5.40
2019-03-16T11:12:42.538Z,9.95
2019-03-16T11:15:12.623Z,5.67
2019-03-16T11:17:41.640Z,5.87
2019-03-16T11:20:15.512Z,4.67
2019-03-16T11:22:44.545Z,5.83
2019-03-16T11:25:13.661Z,5.40
2019-03-16T11:27:42.702Z,3.65
2019-03-16T11:30:13.585Z,6.12
2019-03-16T11:32:42.665Z,4.62
2019-03-16T11:35:11.977Z,5.05
2019-03-16T11:37:41.070Z,6.30
2019-03-16T11:40:15.336Z,6.10
2019-03-16T11:42:44.366Z,5.37
2019-03-16T11:45:13.521Z,4.80
2019-03-16T11:47:42.548Z,6.92
2019-03-16T11:50:12.330Z,4.70
2019-03-16T11:52:41.367Z,5.58
2019-03-16T11:55:10.886Z,5.42
2019-03-16T11:57:39.928Z,6.70
2019-03-16T12:00:13.237Z,4.08
2019-03-16T12:02:42.273Z,4.70
2019-03-16T12:05:12.155Z,4.75
2019-03-16T12:07:41.405Z,4.80
2019-03-16T12:10:11.752Z,5.12
2019-03-16T12:12:40.845Z,6.22
2019-03-16T12:15:11.225Z,5.20
2019-03-16T12:17:40.330Z,5.12
2019-03-16T12:20:13.640Z,4.37
2019-03-16T12:22:42.683Z,5.03
2019-03-16T12:25:12.535Z,6.75
2019-03-16T12:27:41.646Z,5.72
2019-03-16T12:30:13.029Z,6.78
2019-03-16T12:32:42.075Z,5.17
2019-03-16T12:35:11.358Z,7.15
2019-03-16T12:37:40.371Z,4.87
2019-03-16T12:40:12.052Z,5.75
2019-03-16T12:42:41.143Z,5.75
2019-03-16T12:45:14.716Z,7.30
2019-03-16T12:47:43.826Z,4.42
2019-03-16T12:50:13.296Z,5.67
2019-03-16T12:52:42.547Z,5.55
2019-03-16T12:55:12.425Z,5.35
2019-03-16T12:57:41.566Z,5.83
2019-03-16T13:00:18.266Z,5.50
2019-03-16T13:02:47.450Z,4.95
2019-03-16T13:05:16.619Z,4.90
2019-03-16T13:07:45.674Z,5.22
2019-03-16T13:10:16.153Z,6.08
2019-03-16T13:12:45.330Z,4.95
2019-03-16T13:15:14.432Z,5.20
2019-03-16T13:17:43.538Z,6.22
2019-03-16T13:20:14.124Z,5.15
2019-03-16T13:22:43.160Z,4.55
2019-03-16T13:25:12.443Z,5.60
2019-03-16T13:27:41.490Z,4.95
2019-03-16T13:30:13.595Z,5.08
2019-03-16T13:32:42.662Z,5.00
2019-03-16T13:35:11.837Z,5.78
2019-03-16T13:37:40.954Z,6.05
2019-03-16T13:40:14.831Z,4.58
2019-03-16T13:42:43.871Z,5.80
2019-03-16T13:45:13.832Z,4.78
2019-03-16T13:47:42.903Z,3.95
2019-03-16T13:50:14.301Z,5.20
2019-03-16T13:52:43.658Z,4.25
2019-03-16T13:55:12.759Z,4.47
2019-03-16T13:57:41.862Z,5.22
2019-03-16T14:00:14.320Z,5.45
2019-03-16T14:02:43.539Z,5.17
2019-03-16T14:05:12.647Z,5.70
2019-03-16T14:07:42.074Z,4.72
2019-03-16T14:10:16.661Z,4.58
2019-03-16T14:12:45.711Z,4.35
2019-03-16T14:15:14.741Z,5.15
2019-03-16T14:17:44.167Z,3.80
2019-03-16T14:20:15.308Z,5.28
2019-03-16T14:22:44.353Z,4.47
2019-03-16T14:25:13.569Z,4.20
2019-03-16T14:27:42.726Z,4.08
2019-03-16T14:30:29.456Z,3.55
2019-03-16T14:32:48.617Z,3.25
2019-03-16T14:35:17.723Z,3.75
2019-03-16T14:37:46.787Z,4.25
2019-03-16T14:40:16.359Z,3.42
2019-03-16T14:42:45.381Z,4.72
2019-03-16T14:45:15.646Z,2.70
2019-03-16T14:47:44.998Z,3.40
2019-03-16T14:50:17.055Z,3.60
2019-03-16T14:52:46.084Z,3.27
2019-03-16T14:55:15.516Z,2.33
2019-03-16T14:57:44.580Z,1.87
2019-03-16T15:00:15.442Z,1.70
2019-03-16T15:02:46.035Z,2.52
2019-03-16T15:05:15.796Z,2.00
2019-03-16T15:07:44.964Z,1.10
2019-03-16T15:10:17.673Z,1.10
2019-03-16T15:12:46.898Z,3.00
2019-03-16T15:15:20.830Z,1.10
2019-03-16T15:17:49.852Z,1.42
2019-03-16T15:20:18.911Z,1.35
2019-03-16T15:22:47.947Z,1.20
2019-03-16T15:25:17.031Z,2.25
2019-03-16T15:27:46.146Z,1.20
2019-03-16T15:30:18.305Z,1.00
2019-03-16T15:32:47.348Z,1.00
2019-03-16T15:35:16.402Z,0.98
2019-03-16T15:37:45.449Z,1.50
2019-03-16T15:40:15.532Z,0.90
2019-03-16T15:42:44.706Z,0.78
2019-03-16T15:45:21.404Z,0.98
2019-03-16T15:47:50.518Z,1.62
2019-03-16T15:50:19.579Z,2.62
2019-03-16T15:52:48.628Z,2.98
2019-03-16T15:55:17.798Z,4.08
2019-03-16T15:57:46.838Z,2.33
2019-03-16T16:00:17.806Z,8.40
2019-03-16T16:02:47.197Z,1.30
2019-03-16T16:05:16.263Z,1.12
2019-03-16T16:07:45.599Z,1.05
2019-03-16T16:10:18.707Z,1.95
2019-03-16T16:12:47.744Z,1.50
2019-03-16T16:15:17.521Z,2.55
2019-03-16T16:17:46.633Z,1.50
2019-03-16T16:20:16.819Z,1.25
2019-03-16T16:22:45.872Z,1.67
2019-03-16T16:25:15.168Z,1.22
2019-03-16T16:27:44.209Z,1.92
2019-03-16T16:30:17.512Z,1.20
2019-03-16T16:32:46.545Z,0.95
2019-03-16T16:35:16.326Z,1.52
2019-03-16T16:37:45.396Z,1.87
2019-03-16T16:40:16.735Z,1.07
2019-03-16T16:42:45.778Z,1.02
2019-03-16T16:45:16.064Z,1.62
2019-03-16T16:47:45.123Z,1.10
2019-03-16T16:50:22.225Z,1.45
2019-03-16T16:52:51.347Z,1.00
2019-03-16T16:55:20.409Z,1.50
2019-03-16T16:57:49.473Z,1.20
2019-03-16T17:00:24.023Z,2.25
2019-03-16T17:02:53.066Z,0.82
2019-03-16T17:05:22.104Z,1.07
2019-03-16T17:07:51.144Z,2.77
2019-03-16T17:10:20.272Z,1.25
2019-03-16T17:12:49.317Z,0.72
2019-03-16T17:15:24.530Z,1.67
2019-03-16T17:17:53.586Z,1.17
2019-03-16T17:20:22.684Z,1.07
2019-03-16T17:22:51.754Z,1.30
2019-03-16T17:25:20.803Z,1.27
2019-03-16T17:27:49.850Z,1.30
2019-03-16T17:30:24.155Z,1.60
2019-03-16T17:32:53.193Z,0.90
2019-03-16T17:35:22.315Z,1.30
2019-03-16T17:37:51.347Z,1.50
2019-03-16T17:40:20.481Z,1.25
2019-03-16T17:42:49.520Z,2.72
2019-03-16T17:45:20.343Z,1.05
2019-03-16T17:47:49.377Z,1.67
2019-03-16T17:50:18.523Z,1.85
2019-03-16T17:52:47.638Z,1.60
2019-03-16T17:55:17.963Z,1.80
2019-03-16T17:57:47.008Z,3.08
2019-03-16T18:00:17.211Z,2.72
2019-03-16T18:02:51.632Z,2.60
2019-03-16T18:05:17.208Z,2.37
2019-03-16T18:07:46.330Z,1.92
2019-03-16T18:10:15.849Z,1.65
2019-03-16T18:12:45.045Z,1.52
2019-03-16T18:15:15.729Z,2.98
2019-03-16T18:17:44.852Z,2.75
2019-03-16T18:20:17.661Z,1.40
2019-03-16T18:22:47.866Z,1.85
2019-03-16T18:25:17.441Z,3.00
2019-03-16T18:27:46.492Z,1.60
2019-03-16T18:30:20.583Z,2.17
2019-03-16T18:32:49.639Z,1.52
2019-03-16T18:35:18.775Z,1.52
2019-03-16T18:37:48.057Z,1.52
2019-03-16T18:40:17.453Z,1.30
2019-03-16T18:42:46.558Z,1.67
2019-03-16T18:45:27.769Z,1.98
2019-03-16T18:47:56.809Z,1.90
2019-03-16T18:50:25.926Z,1.90
2019-03-16T18:52:55.037Z,1.80
2019-03-16T18:55:24.102Z,2.00
2019-03-16T18:57:53.126Z,2.85
2019-03-16T19:00:22.206Z,1.70
2019-03-16T19:02:51.406Z,2.72
2019-03-16T19:05:20.464Z,1.62
2019-03-16T19:07:49.488Z,1.70
2019-03-16T19:10:18.554Z,1.55
2019-03-16T19:12:47.680Z,2.62
2019-03-16T19:15:17.682Z,2.72
2019-03-16T19:17:58.027Z,3.02
2019-03-16T19:20:18.200Z,1.90
2019-03-16T19:22:47.309Z,2.65
2019-03-16T19:25:22.868Z,2.60
2019-03-16T19:27:52.000Z,2.52
2019-03-16T19:30:21.066Z,3.58
2019-03-16T19:32:50.138Z,2.08
2019-03-16T19:35:19.241Z,2.70
2019-03-16T19:37:48.273Z,2.77
2019-03-16T19:40:21.459Z,3.52
2019-03-16T19:42:50.678Z,2.27
2019-03-16T19:45:19.761Z,2.60
2019-03-16T19:47:48.809Z,3.75
2019-03-16T19:50:18.033Z,3.67
2019-03-16T19:52:47.058Z,4.42
2019-03-16T19:55:16.146Z,3.25
2019-03-16T19:57:45.182Z,3.45
2019-03-16T20:00:15.571Z,2.40
2019-03-16T20:02:50.275Z,2.87
2019-03-16T20:05:15.557Z,3.37
2019-03-16T20:07:44.585Z,3.10
2019-03-16T20:10:14.949Z,3.22
2019-03-16T20:12:44.054Z,3.27
2019-03-16T20:15:15.092Z,3.02
2019-03-16T20:17:44.122Z,2.83
2019-03-16T20:20:14.393Z,2.70
2019-03-16T20:22:43.685Z,3.50
2019-03-16T20:25:12.899Z,3.02
2019-03-16T20:27:41.971Z,2.77
2019-03-16T20:30:25.858Z,2.77
2019-03-16T20:32:50.099Z,2.83
2019-03-16T20:35:18.945Z,2.52
2019-03-16T20:37:48.097Z,4.95
2019-03-16T20:40:17.503Z,3.80
2019-03-16T20:42:46.598Z,3.25
2019-03-16T20:45:15.825Z,3.40
2019-03-16T20:47:45.122Z,3.10
2019-03-16T20:50:18.832Z,2.72
2019-03-16T20:52:47.880Z,3.72
2019-03-16T20:55:16.993Z,3.10
2019-03-16T20:57:46.036Z,3.40
2019-03-16T21:00:17.595Z,3.75
2019-03-16T21:02:47.078Z,3.08
2019-03-16T21:05:16.370Z,3.30
2019-03-16T21:07:45.407Z,3.37
2019-03-16T21:10:14.423Z,3.20
2019-03-16T21:12:43.534Z,3.58
2019-03-16T21:15:14.612Z,2.50
2019-03-16T21:17:43.789Z,4.25
2019-03-16T21:20:16.935Z,4.75
2019-03-16T21:22:45.955Z,3.02
2019-03-16T21:25:15.916Z,3.33
2019-03-16T21:27:44.962Z,2.80
2019-03-16T21:30:16.797Z,3.12
2019-03-16T21:32:45.848Z,4.00
2019-03-16T21:35:14.898Z,5.03
2019-03-16T21:37:44.008Z,3.62
2019-03-16T21:40:16.225Z,4.83
2019-03-16T21:42:45.277Z,3.75
2019-03-16T21:45:14.635Z,3.33
2019-03-16T21:47:43.689Z,3.72
2019-03-16T21:50:16.378Z,3.25
2019-03-16T21:52:45.487Z,3.72
2019-03-16T21:55:15.076Z,3.05
2019-03-16T21:57:44.205Z,2.87
2019-03-16T22:00:15.462Z,3.45
2019-03-16T22:02:44.519Z,3.47
2019-03-16T22:05:13.645Z,4.78
2019-03-16T22:07:42.741Z,4.08
2019-03-16T22:10:14.190Z,3.60
2019-03-16T22:12:43.209Z,3.15
2019-03-16T22:15:13.611Z,3.33
2019-03-16T22:17:42.815Z,3.65
2019-03-16T22:20:17.961Z,3.35
2019-03-16T22:22:46.986Z,2.98
2019-03-16T22:25:16.475Z,3.45
2019-03-16T22:27:45.559Z,3.42
2019-03-16T22:30:18.141Z,4.15
2019-03-16T22:32:47.182Z,4.20
2019-03-16T22:35:16.228Z,2.87
2019-03-16T22:37:45.261Z,2.77
2019-03-16T22:40:17.212Z,5.15
2019-03-16T22:42:46.305Z,3.62
2019-03-16T22:45:15.403Z,3.25
2019-03-16T22:47:44.448Z,3.52
2019-03-16T22:50:15.792Z,3.35
2019-03-16T22:52:44.885Z,4.92
2019-03-16T22:55:15.978Z,3.83
2019-03-16T22:57:44.928Z,3.67
2019-03-16T23:00:20.545Z,4.10
2019-03-16T23:02:49.643Z,3.00
2019-03-16T23:05:18.663Z,3.27
2019-03-16T23:07:47.721Z,3.42
2019-03-16T23:10:16.828Z,3.20
2019-03-16T23:12:45.846Z,6.12
2019-03-16T23:15:14.907Z,4.45
2019-03-16T23:17:43.976Z,2.50
2019-03-16T23:20:13.080Z,3.33
2019-03-16T23:22:42.105Z,4.22
2019-03-16T23:25:11.520Z,3.40
2019-03-16T23:27:40.605Z,3.17
2019-03-16T23:30:13.282Z,3.45
2019-03-16T23:32:42.318Z,3.37
2019-03-16T23:35:11.404Z,3.10
2019-03-16T23:37:40.420Z,3.20
2019-03-16T23:40:11.770Z,3.80
2019-03-16T23:42:40.866Z,3.50
2019-03-16T23:45:12.190Z,3.00
2019-03-16T23:47:41.566Z,2.62
2019-03-16T23:50:12.019Z,2.80
2019-03-16T23:52:41.133Z,3.25
2019-03-16T23:55:10.493Z,3.10
2019-03-16T23:57:39.515Z,2.95
